Time;durP1;ratioP1;P1;durP2;ratioP2;P2;SDS_P1;SDS_P2;PMS_P1;PMS_P2;Temp;Humidity;BMP_temperature;BMP_pressure;BME280_temperature;BME280_humidity;BME280_pressure;Samples;Min_cycle;Max_cycle;Signal;HPM_P1;HPM_P2
2023/05/18 00:02:07;;;;;;;3.83;2.17;;;7.80;99.90;;;;;;5051353;28;20218;-79
2023/05/18 00:04:36;;;;;;;3.80;2.20;;;7.80;99.90;;;;;;5052131;28;20221;-80
2023/05/18 00:07:04;;;;;;;5.73;2.50;;;7.80;99.90;;;;;;5052480;28;20233;-80
2023/05/18 00:09:31;;;;;;;6.97;2.60;;;7.80;99.90;;;;;;5051736;28;20233;-79
2023/05/18 00:11:59;;;;;;;4.07;2.60;;;7.80;99.90;;;;;;5066760;28;20288;-80
2023/05/18 00:14:28;;;;;;;6.50;2.53;;;7.70;99.90;;;;;;5072209;28;20203;-85
2023/05/18 00:16:55;;;;;;;5.83;2.30;;;7.70;99.90;;;;;;5074608;28;20232;-81
2023/05/18 00:19:23;;;;;;;4.10;2.33;;;7.70;99.90;;;;;;5076360;28;20497;-79
2023/05/18 00:21:51;;;;;;;3.20;2.00;;;7.70;99.90;;;;;;5075076;28;20217;-82
2023/05/18 00:24:19;;;;;;;7.33;3.00;;;7.70;99.90;;;;;;5075844;28;20288;-79
2023/05/18 00:26:47;;;;;;;6.97;2.80;;;7.70;99.90;;;;;;5075998;28;20208;-81
2023/05/18 00:29:15;;;;;;;5.50;2.43;;;7.60;99.90;;;;;;5075182;28;20264;-79
2023/05/18 00:31:44;;;;;;;5.40;2.40;;;7.60;99.90;;;;;;5074870;28;20602;-81
2023/05/18 00:34:12;;;;;;;5.20;2.90;;;7.60;99.90;;;;;;5075862;28;20209;-81
2023/05/18 00:36:39;;;;;;;6.17;3.53;;;7.50;99.90;;;;;;5059524;28;20213;-81
2023/05/18 00:39:07;;;;;;;5.33;2.63;;;7.50;99.90;;;;;;5055244;28;20316;-81
2023/05/18 00:41:35;;;;;;;3.67;2.53;;;7.50;99.90;;;;;;5055670;28;20209;-84
2023/05/18 00:44:03;;;;;;;8.43;2.63;;;7.40;99.90;;;;;;5055107;28;20197;-81
2023/05/18 00:46:30;;;;;;;7.03;3.00;;;7.40;99.90;;;;;;5055289;28;20281;-79
2023/05/18 00:49:00;;;;;;;10.97;4.00;;;7.30;99.90;;;;;;5056790;28;20288;-79
2023/05/18 00:51:27;;;;;;;6.97;2.73;;;7.30;99.90;;;;;;5074759;28;20624;-79
2023/05/18 00:53:56;;;;;;;6.53;3.03;;;7.30;99.90;;;;;;5075308;28;20270;-79
2023/05/18 00:56:25;;;;;;;4.87;2.57;;;7.20;99.90;;;;;;5075469;28;20228;-79
2023/05/18 00:58:54;;;;;;;3.80;2.73;;;7.20;99.90;;;;;;5074301;28;20201;-80
2023/05/18 01:01:26;;;;;;;5.77;2.67;;;7.20;99.90;;;;;;5054787;28;20206;-78
2023/05/18 01:03:55;;;;;;;6.67;3.33;;;7.20;99.90;;;;;;5055444;28;20206;-79
2023/05/18 01:06:25;;;;;;;5.43;2.70;;;7.20;99.90;;;;;;5054903;28;20240;-79
2023/05/18 01:08:53;;;;;;;5.73;2.90;;;7.20;99.90;;;;;;5054888;28;20513;-81
2023/05/18 01:11:29;;;;;;;5.67;2.60;;;7.20;99.90;;;;;;5070505;28;20209;-80
2023/05/18 01:14:02;;;;;;;9.73;3.53;;;7.20;99.90;;;;;;5072057;28;20243;-81
2023/05/18 01:16:36;;;;;;;3.37;2.00;;;7.20;99.90;;;;;;5054865;28;20222;-82
2023/05/18 01:19:15;;;;;;;5.63;2.37;;;7.20;99.90;;;;;;5053826;28;20198;-80
2023/05/18 01:21:58;;;;;;;2.90;2.40;;;7.20;99.90;;;;;;5054378;28;20771;-80
2023/05/18 01:24:34;;;;;;;8.10;3.07;;;7.30;99.90;;;;;;5055359;28;20202;-80
2023/05/18 01:27:06;;;;;;;4.80;2.70;;;7.30;99.90;;;;;;5053337;28;20601;-79
2023/05/18 01:29:34;;;;;;;4.93;2.80;;;7.20;99.90;;;;;;5054514;28;20273;-79
2023/05/18 01:32:01;;;;;;;3.93;2.50;;;7.30;99.90;;;;;;5053614;28;20202;-79
2023/05/18 01:34:28;;;;;;;3.50;1.90;;;7.20;99.90;;;;;;5054599;28;20198;-79
2023/05/18 01:36:55;;;;;;;4.90;2.20;;;7.20;99.90;;;;;;5066824;28;20493;-80
2023/05/18 01:39:22;;;;;;;5.23;2.50;;;7.30;99.90;;;;;;5073958;28;20263;-81
2023/05/18 01:41:56;;;;;;;6.07;2.90;;;7.30;99.90;;;;;;5075070;28;20280;-81
2023/05/18 01:44:28;;;;;;;5.20;2.50;;;7.30;99.90;;;;;;5074685;28;20197;-80
2023/05/18 01:47:02;;;;;;;3.43;2.10;;;7.30;99.90;;;;;;5073980;28;20561;-81
2023/05/18 01:49:33;;;;;;;4.70;2.40;;;7.30;99.90;;;;;;5074498;28;20280;-83
2023/05/18 01:52:05;;;;;;;6.07;2.57;;;7.30;99.90;;;;;;5074473;28;20225;-83
2023/05/18 01:54:33;;;;;;;5.60;2.60;;;7.30;99.90;;;;;;5073825;28;20200;-80
2023/05/18 01:57:01;;;;;;;5.80;2.77;;;7.30;99.90;;;;;;5073910;28;20609;-81
2023/05/18 01:59:30;;;;;;;4.03;2.27;;;7.30;99.90;;;;;;5083414;22;20662;-81
2023/05/18 02:02:00;;;;;;;5.80;2.33;;;7.30;99.90;;;;;;5092452;28;20638;-80
2023/05/18 02:04:27;;;;;;;7.60;2.93;;;7.30;99.90;;;;;;5094448;28;20254;-80
2023/05/18 02:06:54;;;;;;;6.00;2.53;;;7.30;99.90;;;;;;5094185;28;20197;-80
2023/05/18 02:09:21;;;;;;;6.77;2.23;;;7.20;99.90;;;;;;5074506;28;20208;-80
2023/05/18 02:11:47;;;;;;;4.37;2.03;;;7.20;99.90;;;;;;5092930;28;20639;-79
2023/05/18 02:14:14;;;;;;;3.17;2.10;;;7.20;99.90;;;;;;5093842;28;20204;-80
2023/05/18 02:16:46;;;;;;;7.67;3.00;;;7.20;99.90;;;;;;5087022;28;20290;-79
2023/05/18 02:19:13;;;;;;;6.47;3.07;;;7.20;99.90;;;;;;5073819;28;20212;-80
2023/05/18 02:21:42;;;;;;;8.10;3.20;;;7.20;99.90;;;;;;5073355;28;20217;-80
2023/05/18 02:24:09;;;;;;;4.03;2.77;;;7.20;99.90;;;;;;5073298;28;20279;-81
2023/05/18 02:26:37;;;;;;;5.47;2.37;;;7.10;99.90;;;;;;5073794;28;20196;-80
2023/05/18 02:29:05;;;;;;;5.43;2.40;;;7.10;99.90;;;;;;5072593;28;20194;-80
2023/05/18 02:31:32;;;;;;;4.97;2.47;;;7.10;99.90;;;;;;5073396;28;20284;-79
2023/05/18 02:34:00;;;;;;;5.03;2.50;;;7.10;99.90;;;;;;5073435;28;20657;-81
2023/05/18 02:36:27;;;;;;;5.30;2.50;;;7.10;99.90;;;;;;5072873;28;20286;-83
2023/05/18 02:38:54;;;;;;;7.03;2.80;;;7.10;99.90;;;;;;5073089;28;20493;-84
2023/05/18 02:41:21;;;;;;;4.10;2.60;;;7.20;99.90;;;;;;5073002;28;20208;-80
2023/05/18 02:43:48;;;;;;;8.17;2.80;;;7.10;99.90;;;;;;5072657;28;20514;-79
2023/05/18 02:46:15;;;;;;;8.67;3.47;;;7.20;99.90;;;;;;5087896;28;20196;-88
2023/05/18 02:48:44;;;;;;;5.20;2.70;;;7.20;99.90;;;;;;5094676;28;20192;-84
2023/05/18 02:51:13;;;;;;;3.40;2.23;;;7.20;99.90;;;;;;5093779;28;20228;-86
2023/05/18 02:53:42;;;;;;;4.87;2.43;;;7.20;99.90;;;;;;5079414;28;20201;-88
2023/05/18 02:56:11;;;;;;;6.03;2.97;;;7.20;99.90;;;;;;5074430;28;20210;-86
2023/05/18 02:58:38;;;;;;;5.37;2.07;;;7.20;99.90;;;;;;5074672;28;20282;-86
2023/05/18 03:01:06;;;;;;;5.03;2.47;;;7.10;99.90;;;;;;5092815;28;20327;-87
2023/05/18 03:03:33;;;;;;;4.47;2.60;;;7.10;99.90;;;;;;5113716;28;20235;-82
2023/05/18 03:06:01;;;;;;;5.40;2.60;;;7.00;99.90;;;;;;5109626;28;20283;-85
2023/05/18 03:08:30;;;;;;;5.13;2.70;;;7.00;99.90;;;;;;5093769;28;20514;-86
2023/05/18 03:10:57;;;;;;;4.27;2.30;;;7.00;99.90;;;;;;5093038;28;20564;-83
2023/05/18 03:13:24;;;;;;;5.37;2.53;;;7.00;99.90;;;;;;5105031;28;20282;-80
2023/05/18 03:15:51;;;;;;;4.47;2.10;;;6.90;99.90;;;;;;5113974;28;20279;-83
2023/05/18 03:18:18;;;;;;;6.70;2.67;;;7.00;99.90;;;;;;5113612;28;20200;-87
2023/05/18 03:20:45;;;;;;;6.43;2.60;;;6.90;99.90;;;;;;5112850;28;20253;-83
2023/05/18 03:23:13;;;;;;;3.43;2.30;;;6.90;99.90;;;;;;5113717;28;20302;-80
2023/05/18 03:25:42;;;;;;;4.90;2.67;;;7.00;99.90;;;;;;5112575;28;20589;-83
2023/05/18 03:28:08;;;;;;;4.83;2.67;;;7.00;99.90;;;;;;5114252;28;20211;-84
2023/05/18 03:30:35;;;;;;;5.50;2.90;;;6.90;99.90;;;;;;5112554;28;20641;-85
2023/05/18 03:33:03;;;;;;;7.30;2.63;;;6.90;99.90;;;;;;5113719;28;20291;-86
2023/05/18 03:35:31;;;;;;;9.13;3.40;;;6.90;99.90;;;;;;5114110;28;20200;-86
2023/05/18 03:37:58;;;;;;;6.60;2.70;;;6.90;99.90;;;;;;5114162;28;20200;-82
2023/05/18 03:40:25;;;;;;;7.77;3.20;;;6.80;99.90;;;;;;5112883;28;20511;-83
2023/05/18 03:42:53;;;;;;;3.60;2.33;;;6.80;99.90;;;;;;5114139;28;20528;-82
2023/05/18 03:45:20;;;;;;;6.17;2.80;;;6.80;99.90;;;;;;5113972;28;20279;-83
2023/05/18 03:47:47;;;;;;;4.70;2.47;;;6.80;99.90;;;;;;5099389;28;20286;-83
2023/05/18 03:50:14;;;;;;;3.70;2.53;;;6.80;99.90;;;;;;5092799;28;20247;-83
2023/05/18 03:52:44;;;;;;;7.07;2.70;;;6.80;99.90;;;;;;5092559;28;20204;-80
2023/05/18 03:55:11;;;;;;;4.77;2.60;;;6.80;99.90;;;;;;5093895;28;20196;-87
2023/05/18 03:57:39;;;;;;;4.73;2.90;;;6.80;99.90;;;;;;5094066;28;20200;-85
2023/05/18 04:00:11;;;;;;;4.83;3.00;;;6.90;99.90;;;;;;5104957;28;20266;-82
2023/05/18 04:02:37;;;;;;;7.37;2.77;;;6.90;99.90;;;;;;5093697;28;20193;-81
2023/05/18 04:05:05;;;;;;;6.57;2.10;;;6.80;99.90;;;;;;5103815;28;20199;-83
2023/05/18 04:07:32;;;;;;;3.60;1.90;;;6.90;99.90;;;;;;5109861;28;20200;-82
2023/05/18 04:09:59;;;;;;;5.97;2.60;;;6.90;99.90;;;;;;5093179;28;20188;-84
2023/05/18 04:12:25;;;;;;;5.17;2.63;;;6.90;99.90;;;;;;5093225;28;20292;-88
2023/05/18 04:14:53;;;;;;;4.70;2.50;;;6.90;99.90;;;;;;5093690;28;20280;-83
2023/05/18 04:17:21;;;;;;;4.70;2.30;;;6.90;99.90;;;;;;5093530;28;20213;-84
2023/05/18 04:19:49;;;;;;;4.13;2.10;;;6.90;99.90;;;;;;5093422;28;20205;-87
2023/05/18 04:22:17;;;;;;;6.67;2.70;;;6.90;99.90;;;;;;5107388;28;20204;-82
2023/05/18 04:24:46;;;;;;;7.30;3.10;;;7.00;99.90;;;;;;5113963;28;20231;-82
2023/05/18 04:27:13;;;;;;;3.97;2.77;;;7.00;99.90;;;;;;5113705;28;20192;-82
2023/05/18 04:29:42;;;;;;;5.77;3.80;;;7.00;99.90;;;;;;5094046;28;20212;-83
2023/05/18 04:32:10;;;;;;;4.30;2.23;;;7.00;99.90;;;;;;5092755;28;20622;-83
2023/05/18 04:34:39;;;;;;;4.57;2.53;;;7.00;99.90;;;;;;5093164;28;20562;-82
2023/05/18 04:37:09;;;;;;;4.43;2.80;;;7.10;99.90;;;;;;5092572;28;20200;-81
2023/05/18 04:39:38;;;;;;;3.80;2.47;;;7.10;99.90;;;;;;5092938;28;20216;-81
2023/05/18 04:42:05;;;;;;;5.30;3.00;;;7.20;99.90;;;;;;5092540;28;20231;-83
2023/05/18 04:44:33;;;;;;;4.73;2.60;;;7.20;99.90;;;;;;5092733;28;20262;-83
2023/05/18 04:47:00;;;;;;;7.30;2.73;;;7.30;99.90;;;;;;5093007;28;20200;-83
2023/05/18 04:49:27;;;;;;;6.30;2.80;;;7.30;99.90;;;;;;5092566;28;20286;-85
2023/05/18 04:51:57;;;;;;;6.53;3.00;;;7.40;99.90;;;;;;5111238;28;20236;-82
2023/05/18 04:54:25;;;;;;;6.57;2.63;;;7.40;99.90;;;;;;5112657;28;20211;-84
2023/05/18 04:56:53;;;;;;;4.13;2.30;;;7.50;99.90;;;;;;5111027;28;20291;-82
2023/05/18 04:59:24;;;;;;;3.87;2.50;;;7.60;99.90;;;;;;5112643;28;20202;-83
2023/05/18 05:01:52;;;;;;;4.83;2.73;;;7.70;99.90;;;;;;5112254;28;20574;-82
2023/05/18 05:04:21;;;;;;;7.00;2.77;;;7.70;99.90;;;;;;5116021;28;20311;-83
2023/05/18 05:06:48;;;;;;;5.50;2.33;;;7.80;99.90;;;;;;5115892;28;20206;-82
2023/05/18 05:09:16;;;;;;;4.93;3.00;;;7.90;99.90;;;;;;5116430;28;20204;-82
2023/05/18 05:11:44;;;;;;;5.40;2.83;;;8.00;99.90;;;;;;5099747;28;20618;-82
2023/05/18 05:14:11;;;;;;;5.30;3.00;;;8.10;99.90;;;;;;5096627;28;20213;-84
2023/05/18 05:16:37;;;;;;;3.23;2.60;;;8.20;99.90;;;;;;5097204;28;20222;-85
2023/05/18 05:19:04;;;;;;;5.20;2.97;;;8.30;99.90;;;;;;5095889;28;20276;-81
2023/05/18 05:21:31;;;;;;;6.60;2.63;;;8.40;99.90;;;;;;5096292;28;20254;-83
2023/05/18 05:24:00;;;;;;;8.77;3.17;;;8.50;99.90;;;;;;5096487;28;20538;-83
2023/05/18 05:26:28;;;;;;;10.07;3.13;;;8.60;99.90;;;;;;5095582;28;20246;-84
2023/05/18 05:28:55;;;;;;;7.37;2.73;;;8.60;99.90;;;;;;5095805;28;20201;-82
2023/05/18 05:31:22;;;;;;;10.50;2.40;;;8.80;99.90;;;;;;5095587;28;20238;-82
2023/05/18 05:33:49;;;;;;;7.03;2.63;;;9.00;99.90;;;;;;5095511;28;20211;-84
2023/05/18 05:36:16;;;;;;;3.70;2.03;;;9.10;99.90;;;;;;5095765;28;20228;-82
2023/05/18 05:38:43;;;;;;;8.43;2.60;;;9.30;99.90;;;;;;5095994;28;20280;-84
2023/05/18 05:41:10;;;;;;;5.47;2.20;;;9.50;99.90;;;;;;5095968;28;20195;-83
2023/05/18 05:43:38;;;;;;;9.20;2.60;;;9.70;99.90;;;;;;5104560;28;20216;-83
2023/05/18 05:46:05;;;;;;;7.93;2.63;;;9.90;99.90;;;;;;5115417;28;20226;-85
2023/05/18 05:48:32;;;;;;;15.33;3.73;;;10.00;99.90;;;;;;5097969;28;20220;-86
2023/05/18 05:50:59;;;;;;;6.53;2.20;;;10.20;99.90;;;;;;5102163;28;20200;-84
2023/05/18 05:53:26;;;;;;;9.33;2.40;;;10.40;99.90;;;;;;5115332;28;20192;-81
2023/05/18 05:55:52;;;;;;;5.67;2.30;;;10.60;99.90;;;;;;5110105;28;20196;-82
2023/05/18 05:58:19;;;;;;;7.13;2.10;;;10.90;99.90;;;;;;5095605;28;20265;-84
2023/05/18 06:00:48;;;;;;;7.33;2.10;;;11.10;99.90;;;;;;5094339;28;20527;-82
2023/05/18 06:03:15;;;;;;;6.23;2.17;;;11.40;99.90;;;;;;5099835;28;20672;-83
2023/05/18 06:05:42;;;;;;;9.83;2.30;;;11.50;99.90;;;;;;5115793;28;20259;-81
2023/05/18 06:08:09;;;;;;;5.23;2.20;;;11.60;99.90;;;;;;5114344;28;20223;-82
2023/05/18 06:10:37;;;;;;;4.53;2.13;;;11.70;99.90;;;;;;5095398;28;20203;-85
2023/05/18 06:13:04;;;;;;;5.43;2.40;;;11.80;99.90;;;;;;5093545;28;20287;-82
2023/05/18 06:15:31;;;;;;;6.87;2.40;;;11.90;99.90;;;;;;5093943;28;20898;-83
2023/05/18 06:18:00;;;;;;;7.47;2.40;;;11.80;99.90;;;;;;5093869;28;20212;-84
2023/05/18 06:20:27;;;;;;;6.97;2.40;;;11.80;99.90;;;;;;5094378;28;20205;-83
2023/05/18 06:22:54;;;;;;;4.13;1.80;;;11.70;99.90;;;;;;5096545;28;20189;-84
2023/05/18 06:25:21;;;;;;;6.90;2.10;;;11.60;99.90;;;;;;5114787;28;20223;-82
2023/05/18 06:27:48;;;;;;;6.40;2.57;;;11.60;99.90;;;;;;5113981;28;20287;-84
2023/05/18 06:30:15;;;;;;;4.67;2.17;;;11.70;99.90;;;;;;5108266;28;20203;-84
2023/05/18 06:32:42;;;;;;;8.10;1.83;;;11.80;99.90;;;;;;5105230;28;20360;-84
2023/05/18 06:35:11;;;;;;;4.77;1.97;;;11.80;99.90;;;;;;5100398;28;20243;-84
2023/05/18 06:37:38;;;;;;;8.87;2.60;;;11.80;99.90;;;;;;5094659;28;20196;-86
2023/05/18 06:40:07;;;;;;;11.20;2.20;;;11.80;99.90;;;;;;5107630;28;20200;-84
2023/05/18 06:42:34;;;;;;;8.60;2.50;;;11.70;99.90;;;;;;5114238;28;20204;-84
2023/05/18 06:45:01;;;;;;;9.80;2.37;;;11.80;99.90;;;;;;5113992;28;20310;-83
2023/05/18 06:47:28;;;;;;;6.50;1.90;;;11.80;99.90;;;;;;5114530;28;20496;-82
2023/05/18 06:49:54;;;;;;;5.07;2.20;;;11.80;99.90;;;;;;5099811;28;20211;-83
2023/05/18 06:52:23;;;;;;;6.40;2.10;;;11.80;99.90;;;;;;5094135;28;20200;-81
2023/05/18 06:54:50;;;;;;;6.07;1.90;;;11.80;99.90;;;;;;5095137;28;20231;-80
2023/05/18 06:57:17;;;;;;;4.90;1.73;;;11.80;99.90;;;;;;5112158;28;20240;-81
2023/05/18 06:59:44;;;;;;;6.00;2.03;;;11.90;99.90;;;;;;5113897;28;20200;-83
2023/05/18 07:02:11;;;;;;;6.20;2.10;;;12.10;99.90;;;;;;5114496;28;20184;-82
2023/05/18 07:04:37;;;;;;;4.73;1.80;;;12.20;99.90;;;;;;5113252;28;20239;-84
2023/05/18 07:07:06;;;;;;;6.87;2.00;;;12.20;99.90;;;;;;5108030;28;20222;-82
2023/05/18 07:09:35;;;;;;;5.70;2.07;;;12.30;99.90;;;;;;5106783;28;20292;-84
2023/05/18 07:12:02;;;;;;;11.03;2.30;;;12.30;99.90;;;;;;5108982;28;20228;-83
2023/05/18 07:14:29;;;;;;;5.73;2.30;;;12.20;99.90;;;;;;5114730;28;20657;-87
2023/05/18 07:16:56;;;;;;;7.27;1.93;;;12.20;99.90;;;;;;5111240;28;20231;-83
2023/05/18 07:19:23;;;;;;;11.23;2.47;;;12.10;99.90;;;;;;5094738;28;20271;-84
2023/05/18 07:21:50;;;;;;;7.57;2.57;;;12.20;99.90;;;;;;5094495;28;20280;-84
2023/05/18 07:24:17;;;;;;;7.43;2.13;;;12.20;99.90;;;;;;5109856;28;20506;-81
2023/05/18 07:26:46;;;;;;;5.40;2.20;;;12.10;99.90;;;;;;5114435;28;20192;-85
2023/05/18 07:29:12;;;;;;;5.53;2.40;;;12.00;99.90;;;;;;5114477;28;20211;-84
2023/05/18 07:31:40;;;;;;;10.63;2.80;;;12.00;99.90;;;;;;5114338;28;20238;-83
2023/05/18 07:34:53;;;;;;;4.10;1.77;;;12.10;99.90;;;;;;5096304;28;20505;-84
2023/05/18 07:37:20;;;;;;;6.53;2.03;;;12.20;99.90;;;;;;5105608;28;20243;-82
2023/05/18 07:39:47;;;;;;;8.67;2.77;;;12.40;99.90;;;;;;5111018;28;20199;-84
2023/05/18 07:42:15;;;;;;;6.73;2.43;;;12.20;99.90;;;;;;5101322;28;20290;-83
2023/05/18 07:44:42;;;;;;;5.43;2.00;;;12.20;99.90;;;;;;5100972;28;20224;-85
2023/05/18 07:47:10;;;;;;;4.87;1.77;;;12.10;99.90;;;;;;5109054;28;20200;-82
2023/05/18 07:49:37;;;;;;;8.00;2.60;;;12.20;99.90;;;;;;5113476;28;20204;-84
2023/05/18 07:52:07;;;;;;;5.67;1.80;;;12.30;99.90;;;;;;5103636;28;20206;-84
2023/05/18 07:54:34;;;;;;;5.63;2.20;;;12.20;99.90;;;;;;5114177;28;20607;-84
2023/05/18 07:57:00;;;;;;;8.07;2.87;;;12.20;99.90;;;;;;5107933;28;20284;-86
2023/05/18 07:59:29;;;;;;;4.93;2.10;;;12.30;99.90;;;;;;5100092;28;20509;-82
2023/05/18 08:01:57;;;;;;;5.33;2.07;;;12.20;99.90;;;;;;5114557;28;20848;-85
2023/05/18 08:04:25;;;;;;;6.00;2.17;;;12.20;99.90;;;;;;5104423;28;20615;-85
2023/05/18 08:06:53;;;;;;;10.43;2.50;;;12.20;99.90;;;;;;5094114;28;20604;-81
2023/05/18 08:09:20;;;;;;;4.30;2.00;;;12.20;99.90;;;;;;5094398;28;20200;-86
2023/05/18 08:11:49;;;;;;;5.57;1.97;;;12.10;99.90;;;;;;5093993;28;20227;-85
2023/05/18 08:14:16;;;;;;;5.27;2.20;;;12.10;99.90;;;;;;5093850;28;20205;-82
2023/05/18 08:16:44;;;;;;;7.87;2.37;;;12.10;99.90;;;;;;5093798;28;20214;-82
2023/05/18 08:19:11;;;;;;;7.20;1.83;;;12.10;99.90;;;;;;5093633;28;20651;-87
2023/05/18 08:21:38;;;;;;;8.27;2.60;;;12.10;99.90;;;;;;5093985;28;20197;-84
2023/05/18 08:24:07;;;;;;;155.17;20.70;;;12.10;99.90;;;;;;5093859;28;20504;-86
2023/05/18 08:26:34;;;;;;;10.53;2.43;;;12.10;99.90;;;;;;5111815;28;20258;-87
2023/05/18 08:29:02;;;;;;;9.00;2.20;;;12.00;99.90;;;;;;5113851;28;20207;-89
2023/05/18 08:31:29;;;;;;;11.73;2.73;;;12.10;99.90;;;;;;5113431;28;20203;-84
2023/05/18 08:33:58;;;;;;;8.60;2.90;;;12.20;99.90;;;;;;5093811;28;20234;-83
2023/05/18 08:36:25;;;;;;;5.33;2.17;;;12.40;99.90;;;;;;5094995;28;20502;-85
2023/05/18 08:38:53;;;;;;;8.63;2.33;;;12.40;99.90;;;;;;5097690;28;20205;-83
2023/05/18 08:41:28;;;;;;;8.87;2.30;;;12.40;99.90;;;;;;5097933;28;20212;-84
2023/05/18 08:44:03;;;;;;;7.10;2.50;;;12.40;99.90;;;;;;5098063;28;20208;-84
2023/05/18 08:46:34;;;;;;;7.47;2.57;;;12.30;99.90;;;;;;5097537;28;20188;-84
2023/05/18 08:49:04;;;;;;;7.50;3.17;;;12.30;99.90;;;;;;5096890;28;20608;-85
2023/05/18 08:51:35;;;;;;;9.53;2.67;;;12.50;99.90;;;;;;5097381;28;20683;-85
2023/05/18 08:54:04;;;;;;;8.40;2.50;;;12.60;99.90;;;;;;5097729;28;20180;-86
2023/05/18 08:56:33;;;;;;;6.53;2.30;;;12.80;99.90;;;;;;5097089;28;20189;-86
2023/05/18 08:59:03;;;;;;;8.43;3.23;;;13.00;99.90;;;;;;5110833;28;20207;-90
2023/05/18 09:01:30;;;;;;;6.77;2.10;;;13.20;99.90;;;;;;5117448;28;20234;-87
2023/05/18 09:03:58;;;;;;;461.87;56.70;;;13.50;99.90;;;;;;5117611;28;20208;-86
2023/05/18 09:06:27;;;;;;;7.80;2.53;;;13.50;99.90;;;;;;5117408;28;20220;-84
2023/05/18 09:08:56;;;;;;;9.93;2.77;;;13.50;99.90;;;;;;5117972;28;20230;-86
2023/05/18 09:11:26;;;;;;;4.93;2.53;;;13.60;99.90;;;;;;5117937;28;20202;-88
2023/05/18 09:13:53;;;;;;;9.33;2.40;;;13.80;99.90;;;;;;5116868;28;20208;-85
2023/05/18 09:16:20;;;;;;;8.57;2.43;;;14.00;99.90;;;;;;5117624;28;20218;-85
2023/05/18 09:18:47;;;;;;;5.57;2.03;;;14.00;99.90;;;;;;5117848;28;20204;-86
2023/05/18 09:21:13;;;;;;;7.73;2.47;;;14.00;99.90;;;;;;5099138;28;20214;-82
2023/05/18 09:23:43;;;;;;;119.17;15.97;;;13.60;99.90;;;;;;5096688;28;20282;-84
2023/05/18 09:26:12;;;;;;;9.10;2.80;;;13.70;99.90;;;;;;5096395;28;20221;-85
2023/05/18 09:28:40;;;;;;;8.37;3.20;;;13.70;99.90;;;;;;5094030;28;20208;-86
2023/05/18 09:31:11;;;;;;;6.87;2.70;;;13.70;99.90;;;;;;5096589;28;20189;-84
2023/05/18 09:33:40;;;;;;;7.87;2.20;;;14.00;99.90;;;;;;5096808;28;20567;-84
2023/05/18 09:36:10;;;;;;;7.03;2.80;;;14.20;99.90;;;;;;5098934;28;20201;-84
2023/05/18 09:38:39;;;;;;;6.57;1.97;;;14.50;99.90;;;;;;5115685;28;20611;-84
2023/05/18 09:41:11;;;;;;;6.80;2.10;;;14.90;99.90;;;;;;5117424;28;20220;-85
2023/05/18 09:43:38;;;;;;;7.37;2.30;;;14.80;99.90;;;;;;5101724;28;20243;-88
2023/05/18 09:46:06;;;;;;;238.87;28.33;;;15.10;99.90;;;;;;5096221;28;20217;-85
2023/05/18 09:48:35;;;;;;;8.77;3.10;;;15.20;99.90;;;;;;5103259;28;20277;-86
2023/05/18 09:51:02;;;;;;;4.90;2.20;;;15.40;99.90;;;;;;5116732;28;20188;-82
2023/05/18 09:53:29;;;;;;;6.47;2.40;;;15.50;99.90;;;;;;5116798;28;20223;-86
2023/05/18 09:55:56;;;;;;;6.17;1.90;;;15.40;99.90;;;;;;5116634;28;20214;-84
2023/05/18 09:58:25;;;;;;;5.67;2.07;;;15.30;99.90;;;;;;5107543;28;20584;-82
2023/05/18 10:00:55;;;;;;;45.13;6.75;;;15.20;99.90;;;;;;5094080;28;20236;-84
2023/05/18 10:03:23;;;;;;;8.13;2.90;;;15.10;99.90;;;;;;5095219;28;20246;-85
2023/05/18 10:05:51;;;;;;;6.43;2.30;;;15.10;99.90;;;;;;5094617;28;20232;-83
2023/05/18 10:08:18;;;;;;;6.25;1.83;;;15.10;99.90;;;;;;5094922;28;20214;-84
2023/05/18 10:10:47;;;;;;;5.10;1.75;;;15.20;99.90;;;;;;5095227;28;20227;-83
2023/05/18 10:13:16;;;;;;;7.20;2.67;;;15.50;99.90;;;;;;5111316;28;20207;-81
2023/05/18 10:15:49;;;;;;;231.37;28.60;;;15.50;99.90;;;;;;5116447;28;20227;-81
2023/05/18 10:18:22;;;;;;;5.82;2.42;;;15.70;99.90;;;;;;5117011;28;20291;-89
2023/05/18 10:20:50;;;;;;;67.82;10.40;;;15.80;99.90;;;;;;5110510;28;20205;-88
2023/05/18 10:23:18;;;;;;;5.25;2.00;;;15.90;99.90;;;;;;5109840;28;20210;-89
2023/05/18 10:25:47;;;;;;;124.40;15.90;;;16.10;99.90;;;;;;5099278;28;20224;-89
2023/05/18 10:28:23;;;;;;;5.95;2.15;;;15.90;99.90;;;;;;5095923;28;20283;-86
2023/05/18 10:30:53;;;;;;;645.28;88.70;;;15.90;99.90;;;;;;5096242;28;20219;-88
2023/05/18 10:33:21;;;;;;;49.33;7.33;;;16.00;99.90;;;;;;5095986;28;20189;-86
2023/05/18 10:35:49;;;;;;;6.73;2.17;;;15.80;99.90;;;;;;5095669;28;20275;-85
2023/05/18 10:38:19;;;;;;;7.22;2.40;;;15.60;99.90;;;;;;5095567;28;20214;-85
2023/05/18 10:40:49;;;;;;;6.73;2.20;;;15.80;99.90;;;;;;5095105;28;20200;-91
2023/05/18 10:43:19;;;;;;;9.57;2.63;;;16.00;99.90;;;;;;5095338;28;20292;-86
2023/05/18 10:45:48;;;;;;;4.95;2.58;;;15.90;99.90;;;;;;5095259;28;20221;-86
2023/05/18 10:48:19;;;;;;;9.30;2.50;;;16.10;99.90;;;;;;5095454;28;20200;-87
2023/05/18 10:50:48;;;;;;;6.67;2.40;;;15.90;99.90;;;;;;5095501;28;20679;-84
2023/05/18 10:53:18;;;;;;;6.23;2.30;;;15.80;99.90;;;;;;5096038;28;20503;-87
2023/05/18 10:55:45;;;;;;;5.57;2.25;;;15.70;99.90;;;;;;5095302;28;20205;-87
2023/05/18 10:58:14;;;;;;;8.53;2.90;;;15.70;99.90;;;;;;5095357;28;20271;-88
2023/05/18 11:00:44;;;;;;;6.00;2.42;;;15.60;99.90;;;;;;5094775;28;20235;-84
2023/05/18 11:03:13;;;;;;;404.33;47.10;;;15.40;99.90;;;;;;5074962;28;20197;-81
2023/05/18 11:05:42;;;;;;;11.52;3.15;;;15.10;99.90;;;;;;5098848;28;20287;-85
2023/05/18 11:08:09;;;;;;;29.75;5.10;;;15.20;99.90;;;;;;5115252;28;20231;-85
2023/05/18 11:10:41;;;;;;;7.37;2.60;;;15.50;99.90;;;;;;5115136;28;20234;-85
2023/05/18 11:13:10;;;;;;;11.30;2.93;;;15.70;99.90;;;;;;5115182;28;20667;-86
2023/05/18 11:16:03;;;;;;;17.00;4.13;;;15.60;99.90;;;;;;5098519;28;20249;-86
2023/05/18 11:18:35;;;;;;;10.53;3.10;;;15.60;99.90;;;;;;5095113;28;20233;-87
2023/05/18 11:21:04;;;;;;;430.23;51.95;;;15.90;99.90;;;;;;5094631;28;20687;-87
2023/05/18 11:23:32;;;;;;;469.57;56.17;;;16.10;99.90;;;;;;5094247;28;20252;-84
2023/05/18 11:26:03;;;;;;;48.37;7.20;;;16.10;99.90;;;;;;5094481;28;20666;-86
2023/05/18 11:28:32;;;;;;;11.10;3.10;;;15.60;99.90;;;;;;5094572;28;20239;-81
2023/05/18 11:31:00;;;;;;;38.57;6.17;;;15.20;99.90;;;;;;5094246;28;20216;-83
2023/05/18 11:33:29;;;;;;;8.03;2.70;;;15.00;99.90;;;;;;5094586;28;20197;-82
2023/05/18 11:36:06;;;;;;;287.27;32.57;;;15.40;99.90;;;;;;5108615;28;20295;-84
2023/05/18 11:39:02;;;;;;;5.57;2.30;;;15.50;99.90;;;;;;5113313;28;20201;-84
2023/05/18 11:41:38;;;;;;;124.43;16.55;;;15.90;99.90;;;;;;5111221;28;20208;-91
2023/05/18 11:44:18;;;;;;;13.43;3.25;;;16.20;99.90;;;;;;5113856;28;20217;-87
2023/05/18 11:46:59;;;;;;;5.05;2.00;;;15.90;99.90;;;;;;5114683;28;20307;-83
2023/05/18 11:49:28;;;;;;;7.20;2.42;;;16.00;99.90;;;;;;5114921;28;20215;-85
2023/05/18 11:52:05;;;;;;;9.38;3.10;;;16.10;99.90;;;;;;5095746;28;20208;-87
2023/05/18 11:54:44;;;;;;;22.88;4.25;;;16.30;99.90;;;;;;5094105;28;20216;-84
2023/05/18 11:57:11;;;;;;;5.50;2.22;;;16.60;99.90;;;;;;5093311;28;20204;-85
2023/05/18 11:59:40;;;;;;;5.53;2.42;;;17.00;99.90;;;;;;5093753;28;20206;-86
2023/05/18 12:02:10;;;;;;;7.07;2.50;;;16.80;99.90;;;;;;5095166;28;20262;-86
2023/05/18 12:04:43;;;;;;;5.60;2.38;;;16.70;99.90;;;;;;5113976;28;20596;-85
2023/05/18 12:07:11;;;;;;;5.65;2.25;;;16.60;99.90;;;;;;5112748;28;20235;-89
2023/05/18 12:09:42;;;;;;;8.32;2.30;;;16.80;99.90;;;;;;5114611;28;20523;-86
2023/05/18 12:12:10;;;;;;;5.78;2.40;;;16.70;99.90;;;;;;5109686;28;20209;-85
2023/05/18 12:14:41;;;;;;;5.80;2.35;;;16.90;99.90;;;;;;5113965;28;20210;-85
2023/05/18 12:17:09;;;;;;;6.03;2.70;;;16.80;99.90;;;;;;5103518;27;20272;-88
2023/05/18 12:19:43;;;;;;;6.00;2.58;;;16.80;99.90;;;;;;5118048;27;20203;-87
2023/05/18 12:22:12;;;;;;;6.63;2.58;;;16.60;99.90;;;;;;5116337;27;20206;-85
2023/05/18 12:24:40;;;;;;;6.53;2.72;;;16.50;99.90;;;;;;5113491;28;20229;-88
2023/05/18 12:27:08;;;;;;;7.22;2.60;;;16.50;99.90;;;;;;5111951;28;20306;-90
2023/05/18 12:29:39;;;;;;;5.82;2.33;;;16.60;99.90;;;;;;5113604;28;20282;-88
2023/05/18 12:32:08;;;;;;;6.05;2.97;;;16.50;99.90;;;;;;5118637;28;20275;-90
2023/05/18 12:34:35;;;;;;;7.22;2.65;;;16.60;99.90;;;;;;5118019;28;20264;-92
2023/05/18 12:37:02;;;;;;;10.88;2.90;;;16.50;99.90;;;;;;5100168;28;20581;-89
2023/05/18 12:39:31;;;;;;;8.55;2.78;;;15.80;99.90;;;;;;5118693;28;20203;-90
2023/05/18 12:42:13;;;;;;;6.20;2.38;;;15.90;99.90;;;;;;5118251;28;20200;-89
2023/05/18 12:44:42;;;;;;;6.32;4.05;;;16.10;99.90;;;;;;5118291;28;20277;-87
2023/05/18 12:47:11;;;;;;;7.72;2.70;;;16.20;99.90;;;;;;5118567;28;20265;-88
2023/05/18 12:49:39;;;;;;;22.15;3.85;;;16.60;99.90;;;;;;5117961;28;20279;-89
2023/05/18 12:52:11;;;;;;;9.15;2.65;;;16.90;99.90;;;;;;5117896;28;20234;-88
2023/05/18 12:54:53;;;;;;;10.10;3.22;;;17.20;99.90;;;;;;5116818;28;20191;-87
2023/05/18 12:57:24;;;;;;;6.85;2.83;;;17.40;99.90;;;;;;5111856;28;20213;-86
2023/05/18 12:59:51;;;;;;;5.65;2.92;;;17.10;99.90;;;;;;5097298;28;20188;-87